Time;durP1;ratioP1;P1;durP2;ratioP2;P2;SDS_P1;SDS_P2;PMS_P1;PMS_P2;Temp;Humidity;BMP_temperature;BMP_pressure;BME280_temperature;BME280_humidity;BME280_pressure;Samples;Min_cycle;Max_cycle;Signal;HPM_P1;HPM_P2
2024/02/25 00:01:50;;;;;;;15.55;14.70;;;;;;;;;;4993149;28;20774;-77
2024/02/25 00:04:17;;;;;;;15.38;14.68;;;;;;;;;;4980581;28;20302;-78
2024/02/25 00:06:45;;;;;;;15.55;14.85;;;;;;;;;;4974890;28;20266;-77
2024/02/25 00:09:13;;;;;;;15.77;14.98;;;;;;;;;;4974692;28;20615;-77
2024/02/25 00:11:40;;;;;;;14.77;13.85;;;;;;;;;;5004166;28;20198;-78
2024/02/25 00:14:07;;;;;;;15.52;14.82;;;;;;;;;;5001755;28;20237;-77
2024/02/25 00:16:35;;;;;;;15.60;14.80;;;;;;;;;;4995572;28;20929;-78
2024/02/25 00:19:02;;;;;;;15.90;15.15;;;;;;;;;;4978521;28;20225;-78
2024/02/25 00:21:29;;;;;;;15.93;14.98;;;;;;;;;;4978406;28;20237;-78
2024/02/25 00:23:56;;;;;;;15.68;14.95;;;;;;;;;;4976173;28;20226;-78
2024/02/25 00:26:24;;;;;;;16.48;15.48;;;;;;;;;;4987899;28;20678;-77
2024/02/25 00:28:51;;;;;;;15.48;14.45;;;;;;;;;;4993674;28;20297;-77
2024/02/25 00:31:18;;;;;;;15.18;14.48;;;;;;;;;;4992924;28;20210;-77
2024/02/25 00:33:46;;;;;;;15.20;14.55;;;;;;;;;;4992647;28;20238;-77
2024/02/25 00:36:13;;;;;;;15.00;14.32;;;;;;;;;;4993624;28;20206;-78
2024/02/25 00:38:40;;;;;;;14.95;14.18;;;;;;;;;;4993782;28;20221;-77
2024/02/25 00:41:08;;;;;;;15.25;14.43;;;;;;;;;;4992871;28;20210;-77
2024/02/25 00:43:36;;;;;;;14.77;13.98;;;;;;;;;;4993217;28;20653;-79
2024/02/25 00:46:03;;;;;;;15.00;14.40;;;;;;;;;;4993410;28;20206;-77
2024/02/25 00:48:30;;;;;;;14.30;13.70;;;;;;;;;;4993277;28;20214;-77
2024/02/25 00:50:57;;;;;;;15.00;14.40;;;;;;;;;;4992728;28;20268;-77
2024/02/25 00:53:24;;;;;;;14.93;14.32;;;;;;;;;;4992761;28;20230;-77
2024/02/25 00:55:51;;;;;;;14.60;13.70;;;;;;;;;;4992961;28;20276;-76
2024/02/25 00:58:18;;;;;;;14.20;13.60;;;;;;;;;;4993700;28;20210;-78
2024/02/25 01:00:47;;;;;;;15.02;14.10;;;;;;;;;;4992624;28;20270;-77
2024/02/25 01:03:14;;;;;;;13.88;13.27;;;;;;;;;;4992826;28;20229;-77
2024/02/25 01:05:41;;;;;;;13.90;13.10;;;;;;;;;;4992574;28;20658;-78
2024/02/25 01:08:08;;;;;;;14.07;13.55;;;;;;;;;;4993124;28;20214;-77
2024/02/25 01:10:35;;;;;;;14.80;14.10;;;;;;;;;;4992271;28;20827;-78
2024/02/25 01:13:02;;;;;;;14.25;13.65;;;;;;;;;;4991910;28;20912;-79
2024/02/25 01:15:29;;;;;;;13.85;13.30;;;;;;;;;;4992832;28;20237;-78
2024/02/25 01:17:57;;;;;;;15.30;14.48;;;;;;;;;;4992818;28;20206;-77
2024/02/25 01:20:24;;;;;;;15.52;14.02;;;;;;;;;;4992991;28;20288;-77
2024/02/25 01:22:51;;;;;;;14.23;13.63;;;;;;;;;;4991810;28;20206;-77
2024/02/25 01:25:18;;;;;;;14.18;13.57;;;;;;;;;;4992823;28;20265;-77
2024/02/25 01:27:45;;;;;;;13.73;13.13;;;;;;;;;;4992081;28;20671;-77
2024/02/25 01:30:14;;;;;;;14.07;13.38;;;;;;;;;;4992320;28;20202;-79
2024/02/25 01:32:41;;;;;;;14.20;13.60;;;;;;;;;;4991670;28;20232;-77
2024/02/25 01:35:13;;;;;;;14.05;13.50;;;;;;;;;;4992063;28;20225;-77
2024/02/25 01:37:40;;;;;;;13.60;13.10;;;;;;;;;;4992008;28;20742;-77
2024/02/25 01:40:08;;;;;;;14.23;13.63;;;;;;;;;;4992313;28;20649;-77
2024/02/25 01:42:37;;;;;;;14.70;13.90;;;;;;;;;;4991894;28;20242;-77
2024/02/25 01:45:04;;;;;;;14.70;14.00;;;;;;;;;;4992459;28;20229;-77
2024/02/25 01:47:31;;;;;;;14.98;14.15;;;;;;;;;;4992024;28;20741;-77
2024/02/25 01:49:58;;;;;;;14.10;13.50;;;;;;;;;;4990207;28;20655;-78
2024/02/25 01:52:27;;;;;;;14.05;13.45;;;;;;;;;;4991783;28;20264;-77
2024/02/25 01:54:54;;;;;;;14.27;13.60;;;;;;;;;;4990602;28;20678;-77
2024/02/25 01:57:22;;;;;;;13.73;13.23;;;;;;;;;;4992036;28;20280;-77
2024/02/25 01:59:49;;;;;;;13.80;13.20;;;;;;;;;;4989609;28;20264;-77
2024/02/25 02:02:17;;;;;;;14.30;13.70;;;;;;;;;;4987399;28;20574;-77
2024/02/25 02:04:44;;;;;;;14.38;13.77;;;;;;;;;;4991532;28;20233;-79
2024/02/25 02:07:11;;;;;;;15.27;14.48;;;;;;;;;;4991984;28;20214;-77
2024/02/25 02:09:39;;;;;;;14.30;13.68;;;;;;;;;;4991855;28;20937;-78
2024/02/25 02:12:06;;;;;;;14.90;14.20;;;;;;;;;;4991554;28;20209;-77
2024/02/25 02:14:33;;;;;;;14.07;13.48;;;;;;;;;;4990886;28;20272;-78
2024/02/25 02:17:03;;;;;;;15.18;14.38;;;;;;;;;;4991745;28;20933;-78
2024/02/25 02:19:30;;;;;;;14.48;13.88;;;;;;;;;;4991036;28;20226;-77
2024/02/25 02:21:58;;;;;;;14.93;14.30;;;;;;;;;;4991404;28;20245;-77
2024/02/25 02:24:26;;;;;;;15.43;14.48;;;;;;;;;;4993891;28;20214;-77
2024/02/25 02:26:53;;;;;;;14.68;14.05;;;;;;;;;;4996115;28;20607;-78
2024/02/25 02:29:20;;;;;;;14.93;14.20;;;;;;;;;;4995621;28;20257;-77
2024/02/25 02:31:49;;;;;;;14.82;14.02;;;;;;;;;;4995351;28;20261;-77
2024/02/25 02:34:16;;;;;;;15.02;14.32;;;;;;;;;;4995206;28;20325;-77
2024/02/25 02:36:43;;;;;;;14.50;13.88;;;;;;;;;;4994506;28;20218;-77
2024/02/25 02:39:11;;;;;;;15.45;14.55;;;;;;;;;;4995255;28;20804;-77
2024/02/25 02:41:38;;;;;;;15.20;14.50;;;;;;;;;;4994690;28;20210;-77
2024/02/25 02:44:06;;;;;;;16.27;15.38;;;;;;;;;;4995191;28;20581;-77
2024/02/25 02:46:38;;;;;;;16.73;15.85;;;;;;;;;;4994870;28;20232;-77
2024/02/25 02:49:05;;;;;;;16.35;15.55;;;;;;;;;;4995450;28;20191;-77
2024/02/25 02:51:33;;;;;;;16.50;15.70;;;;;;;;;;4994321;28;20210;-77
2024/02/25 02:54:02;;;;;;;15.60;14.70;;;;;;;;;;4995178;28;20230;-78
2024/02/25 02:56:30;;;;;;;15.70;14.82;;;;;;;;;;4994924;28;20226;-78
2024/02/25 02:58:57;;;;;;;16.75;15.85;;;;;;;;;;4983249;28;20234;-78
2024/02/25 03:01:24;;;;;;;16.77;15.97;;;;;;;;;;4975318;28;20214;-77
2024/02/25 03:03:51;;;;;;;17.00;16.10;;;;;;;;;;4984753;28;20496;-78
2024/02/25 03:06:18;;;;;;;16.05;15.25;;;;;;;;;;4995362;28;20211;-77
2024/02/25 03:08:45;;;;;;;15.95;15.25;;;;;;;;;;4995257;28;20206;-77
2024/02/25 03:11:12;;;;;;;16.30;15.40;;;;;;;;;;4994364;28;20264;-79
2024/02/25 03:13:41;;;;;;;17.08;16.17;;;;;;;;;;4993942;28;20234;-77
2024/02/25 03:16:08;;;;;;;16.20;15.40;;;;;;;;;;4982199;28;20589;-78
2024/02/25 03:18:36;;;;;;;15.60;14.90;;;;;;;;;;4975822;28;20284;-78
2024/02/25 03:21:03;;;;;;;15.90;15.00;;;;;;;;;;4974761;28;20210;-79
2024/02/25 03:23:30;;;;;;;16.27;15.52;;;;;;;;;;4975315;28;20278;-77
2024/02/25 03:25:57;;;;;;;16.13;15.20;;;;;;;;;;4975259;28;20238;-77
2024/02/25 03:28:24;;;;;;;16.30;15.50;;;;;;;;;;4975283;28;20889;-77
2024/02/25 03:30:53;;;;;;;15.68;14.90;;;;;;;;;;4974748;28;20242;-78
2024/02/25 03:33:20;;;;;;;16.20;15.30;;;;;;;;;;4974828;28;20300;-79
2024/02/25 03:35:47;;;;;;;15.30;14.60;;;;;;;;;;4975321;28;20223;-78
2024/02/25 03:38:14;;;;;;;15.60;14.85;;;;;;;;;;4976991;28;20215;-79
2024/02/25 03:40:41;;;;;;;17.40;16.25;;;;;;;;;;4976760;28;20239;-79
2024/02/25 03:43:12;;;;;;;15.98;15.10;;;;;;;;;;4976627;28;20227;-79
2024/02/25 03:45:39;;;;;;;17.08;15.98;;;;;;;;;;4977131;28;20195;-78
2024/02/25 03:48:08;;;;;;;15.90;15.10;;;;;;;;;;4977049;28;20207;-80
2024/02/25 03:50:35;;;;;;;16.27;15.07;;;;;;;;;;4977224;28;20206;-80
2024/02/25 03:53:03;;;;;;;16.33;15.40;;;;;;;;;;4976594;28;20235;-80
2024/02/25 03:55:30;;;;;;;17.55;16.42;;;;;;;;;;4976684;28;20290;-78
2024/02/25 03:57:57;;;;;;;17.77;16.47;;;;;;;;;;4976920;28;20574;-79
2024/02/25 04:00:24;;;;;;;15.40;14.70;;;;;;;;;;4977140;28;20433;-79
2024/02/25 04:02:51;;;;;;;16.17;15.20;;;;;;;;;;4979605;28;20580;-78
2024/02/25 04:05:19;;;;;;;16.88;16.00;;;;;;;;;;4994788;28;20416;-79
2024/02/25 04:07:47;;;;;;;16.95;16.05;;;;;;;;;;4994921;28;20225;-78
2024/02/25 04:10:14;;;;;;;17.73;16.75;;;;;;;;;;4994860;28;20912;-78
2024/02/25 04:12:41;;;;;;;17.83;16.55;;;;;;;;;;4994123;28;20210;-77
2024/02/25 04:15:09;;;;;;;18.60;17.40;;;;;;;;;;4975767;28;20239;-78
2024/02/25 04:17:36;;;;;;;17.67;16.63;;;;;;;;;;4975363;28;20261;-78
2024/02/25 04:20:03;;;;;;;17.80;16.88;;;;;;;;;;4981771;28;20217;-79
2024/02/25 04:22:31;;;;;;;17.65;16.75;;;;;;;;;;4989602;28;20206;-79
2024/02/25 04:24:58;;;;;;;18.30;17.30;;;;;;;;;;4981582;28;20309;-77
2024/02/25 04:27:25;;;;;;;19.05;17.95;;;;;;;;;;4991568;28;20260;-79
2024/02/25 04:29:52;;;;;;;18.45;17.30;;;;;;;;;;4987419;28;20610;-78
2024/02/25 04:32:19;;;;;;;17.48;16.58;;;;;;;;;;4992566;28;20214;-79
2024/02/25 04:34:46;;;;;;;19.10;17.85;;;;;;;;;;4992318;28;20300;-77
2024/02/25 04:37:13;;;;;;;19.17;18.17;;;;;;;;;;4992671;28;20269;-77
2024/02/25 04:39:42;;;;;;;17.95;16.90;;;;;;;;;;4988293;28;20206;-77
2024/02/25 04:42:09;;;;;;;17.88;16.88;;;;;;;;;;4992610;28;20260;-79
2024/02/25 04:44:36;;;;;;;18.33;17.27;;;;;;;;;;4993221;28;20225;-78
2024/02/25 04:47:04;;;;;;;18.52;17.30;;;;;;;;;;4981621;28;20253;-78
2024/02/25 04:49:30;;;;;;;19.05;17.85;;;;;;;;;;4993149;28;20207;-78
2024/02/25 04:51:57;;;;;;;17.48;16.27;;;;;;;;;;4984426;28;20210;-78
2024/02/25 04:54:24;;;;;;;19.15;18.10;;;;;;;;;;4989981;28;20301;-79
2024/02/25 04:56:54;;;;;;;18.50;17.50;;;;;;;;;;4992433;28;20697;-77
2024/02/25 04:59:21;;;;;;;18.55;17.00;;;;;;;;;;4988007;28;20662;-79
2024/02/25 05:01:48;;;;;;;18.02;17.02;;;;;;;;;;4989655;28;20217;-79
2024/02/25 05:04:15;;;;;;;18.50;17.30;;;;;;;;;;4985603;28;20285;-79
2024/02/25 05:06:42;;;;;;;17.98;17.08;;;;;;;;;;4981684;28;20213;-78
2024/02/25 05:09:09;;;;;;;17.48;16.55;;;;;;;;;;4984073;28;20215;-80
2024/02/25 05:11:36;;;;;;;18.60;17.33;;;;;;;;;;4992308;28;20206;-78
2024/02/25 05:14:05;;;;;;;19.50;18.23;;;;;;;;;;4985253;28;20707;-80
2024/02/25 05:16:32;;;;;;;18.52;17.52;;;;;;;;;;4982998;28;20309;-78
2024/02/25 05:18:59;;;;;;;19.40;18.08;;;;;;;;;;4986419;28;20206;-78
2024/02/25 05:21:26;;;;;;;18.90;17.70;;;;;;;;;;4981693;28;20268;-79
2024/02/25 05:23:53;;;;;;;18.27;17.08;;;;;;;;;;4992260;28;20351;-79
2024/02/25 05:26:20;;;;;;;18.38;17.27;;;;;;;;;;4984035;28;20214;-78
2024/02/25 05:28:47;;;;;;;17.40;16.50;;;;;;;;;;4985928;28;20548;-78
2024/02/25 05:31:16;;;;;;;16.90;16.00;;;;;;;;;;4978214;28;20606;-79
2024/02/25 05:33:43;;;;;;;16.70;15.90;;;;;;;;;;4986923;28;20288;-79
2024/02/25 05:36:10;;;;;;;16.55;15.70;;;;;;;;;;4991752;28;20222;-80
2024/02/25 05:38:37;;;;;;;16.90;16.10;;;;;;;;;;4982307;28;20210;-77
2024/02/25 05:41:07;;;;;;;16.70;15.80;;;;;;;;;;4977601;28;20650;-79
2024/02/25 05:43:34;;;;;;;16.02;15.20;;;;;;;;;;4991012;28;20264;-78
2024/02/25 05:46:01;;;;;;;16.00;15.20;;;;;;;;;;4989577;28;20931;-78
2024/02/25 05:48:29;;;;;;;15.95;15.15;;;;;;;;;;4985822;28;20218;-79
2024/02/25 05:50:56;;;;;;;14.60;13.90;;;;;;;;;;4978650;28;20285;-77
2024/02/25 05:53:23;;;;;;;16.20;15.40;;;;;;;;;;4989143;28;20281;-78
2024/02/25 05:55:50;;;;;;;14.75;14.15;;;;;;;;;;4988892;28;20280;-79
2024/02/25 05:58:17;;;;;;;14.90;14.10;;;;;;;;;;4981315;28;20626;-79
2024/02/25 06:00:44;;;;;;;15.40;14.60;;;;;;;;;;4987152;28;20215;-80
2024/02/25 06:03:11;;;;;;;14.80;14.10;;;;;;;;;;4988021;28;20280;-79
2024/02/25 06:05:39;;;;;;;14.57;13.77;;;;;;;;;;4987077;28;20284;-78
2024/02/25 06:08:06;;;;;;;14.40;13.80;;;;;;;;;;4986971;28;20674;-79
2024/02/25 06:10:33;;;;;;;14.32;13.52;;;;;;;;;;4991883;28;20288;-77
2024/02/25 06:13:00;;;;;;;14.52;13.93;;;;;;;;;;4972745;28;20242;-79
2024/02/25 06:15:27;;;;;;;14.50;13.90;;;;;;;;;;4973324;28;20211;-79
2024/02/25 06:17:54;;;;;;;13.75;13.15;;;;;;;;;;4973095;28;20214;-78
2024/02/25 06:20:21;;;;;;;12.80;12.35;;;;;;;;;;4973233;28;20297;-78
2024/02/25 06:22:50;;;;;;;14.00;13.40;;;;;;;;;;4972541;28;21064;-79
2024/02/25 06:25:17;;;;;;;13.90;13.30;;;;;;;;;;4973616;28;20219;-79
2024/02/25 06:27:44;;;;;;;13.30;12.80;;;;;;;;;;4973679;28;20701;-79
2024/02/25 06:30:11;;;;;;;14.02;13.52;;;;;;;;;;4974758;28;20225;-78
2024/02/25 06:32:40;;;;;;;14.63;13.93;;;;;;;;;;4977156;28;20252;-78
2024/02/25 06:35:07;;;;;;;13.93;13.23;;;;;;;;;;4992528;28;20678;-78
2024/02/25 06:37:34;;;;;;;14.15;13.55;;;;;;;;;;4992445;28;20717;-78
2024/02/25 06:40:03;;;;;;;14.27;13.70;;;;;;;;;;4992543;28;20566;-77
2024/02/25 06:42:30;;;;;;;14.80;14.20;;;;;;;;;;4992622;28;20272;-77
2024/02/25 06:44:57;;;;;;;14.50;13.90;;;;;;;;;;4978177;28;21049;-78
2024/02/25 06:47:24;;;;;;;14.23;13.63;;;;;;;;;;4972887;28;20258;-78
2024/02/25 06:49:52;;;;;;;13.82;13.32;;;;;;;;;;4973022;28;20214;-78
2024/02/25 06:52:19;;;;;;;14.27;13.68;;;;;;;;;;4972746;28;20326;-78
2024/02/25 06:54:46;;;;;;;14.85;14.20;;;;;;;;;;4979112;28;20226;-78
2024/02/25 06:57:15;;;;;;;13.48;12.98;;;;;;;;;;4994646;28;20226;-79
2024/02/25 06:59:42;;;;;;;14.50;13.90;;;;;;;;;;4993845;28;20304;-79
2024/02/25 07:02:09;;;;;;;14.80;14.10;;;;;;;;;;4993580;28;20211;-79
2024/02/25 07:04:36;;;;;;;14.70;14.10;;;;;;;;;;4992672;28;20577;-78
2024/02/25 07:07:03;;;;;;;14.13;13.52;;;;;;;;;;4974437;28;20214;-80
2024/02/25 07:09:32;;;;;;;14.60;14.00;;;;;;;;;;4979146;28;20730;-78
2024/02/25 07:11:58;;;;;;;15.48;14.63;;;;;;;;;;4990713;28;20273;-80
2024/02/25 07:14:28;;;;;;;15.10;14.40;;;;;;;;;;4984853;28;20233;-80
2024/02/25 07:16:55;;;;;;;15.60;14.90;;;;;;;;;;4978422;28;20227;-78
2024/02/25 07:19:22;;;;;;;14.80;14.20;;;;;;;;;;4977935;28;20230;-78
2024/02/25 07:21:49;;;;;;;14.35;13.65;;;;;;;;;;4986293;28;20256;-78
2024/02/25 07:24:16;;;;;;;14.13;13.43;;;;;;;;;;4997401;28;20230;-78
2024/02/25 07:26:45;;;;;;;15.05;14.35;;;;;;;;;;4997866;28;20786;-78
2024/02/25 07:29:12;;;;;;;14.65;14.02;;;;;;;;;;4996263;28;20206;-78
2024/02/25 07:31:40;;;;;;;15.38;14.68;;;;;;;;;;4996043;28;20206;-78
2024/02/25 07:34:08;;;;;;;15.98;15.18;;;;;;;;;;4994670;28;20273;-79
2024/02/25 07:36:35;;;;;;;15.77;14.97;;;;;;;;;;4991866;28;20316;-77
2024/02/25 07:39:02;;;;;;;14.93;14.32;;;;;;;;;;4995025;28;20449;-79
2024/02/25 07:41:29;;;;;;;14.88;14.23;;;;;;;;;;4994337;28;20310;-78
2024/02/25 07:43:56;;;;;;;16.20;15.17;;;;;;;;;;4994890;28;20226;-79
2024/02/25 07:46:24;;;;;;;15.05;14.35;;;;;;;;;;4994447;28;20953;-78
2024/02/25 07:48:52;;;;;;;15.20;14.50;;;;;;;;;;4994878;28;20210;-78
2024/02/25 07:51:19;;;;;;;15.35;14.75;;;;;;;;;;4994271;28;20213;-79
2024/02/25 07:53:48;;;;;;;14.90;14.20;;;;;;;;;;4994460;28;20269;-79
2024/02/25 07:56:18;;;;;;;15.60;14.90;;;;;;;;;;4995041;28;20863;-80
2024/02/25 07:58:45;;;;;;;14.88;14.27;;;;;;;;;;4994176;28;20202;-78
2024/02/25 08:01:12;;;;;;;13.82;13.32;;;;;;;;;;4994190;28;20688;-78
2024/02/25 08:03:39;;;;;;;15.13;14.43;;;;;;;;;;4994582;28;20265;-78
2024/02/25 08:06:08;;;;;;;14.87;14.27;;;;;;;;;;4994922;28;20712;-77
2024/02/25 08:08:35;;;;;;;15.50;14.80;;;;;;;;;;4995037;28;20428;-78
2024/02/25 08:11:02;;;;;;;15.60;14.90;;;;;;;;;;4993904;28;20202;-78
2024/02/25 08:13:29;;;;;;;15.60;14.90;;;;;;;;;;4979539;28;21028;-79
2024/02/25 08:15:56;;;;;;;15.67;14.93;;;;;;;;;;4975030;28;20543;-79
2024/02/25 08:18:23;;;;;;;15.63;14.93;;;;;;;;;;4985365;28;20476;-79
2024/02/25 08:20:50;;;;;;;15.25;14.60;;;;;;;;;;4994564;28;20511;-79
2024/02/25 08:23:18;;;;;;;15.52;14.82;;;;;;;;;;4994503;28;20234;-78
2024/02/25 08:25:45;;;;;;;15.60;14.90;;;;;;;;;;4995056;28;20238;-78
2024/02/25 08:28:12;;;;;;;15.40;14.80;;;;;;;;;;4994934;28;20924;-78
2024/02/25 08:30:39;;;;;;;16.23;15.43;;;;;;;;;;4994796;28;20507;-80
2024/02/25 08:33:06;;;;;;;16.15;15.40;;;;;;;;;;4991088;28;20470;-78
2024/02/25 08:35:33;;;;;;;16.53;15.73;;;;;;;;;;4975525;28;20222;-78
2024/02/25 08:38:00;;;;;;;15.57;14.87;;;;;;;;;;4974762;28;20558;-78
2024/02/25 08:40:30;;;;;;;22.87;21.10;;;;;;;;;;4975639;28;20434;-78
2024/02/25 08:42:57;;;;;;;18.33;17.33;;;;;;;;;;4974624;28;20471;-78
2024/02/25 08:45:24;;;;;;;16.10;15.40;;;;;;;;;;4976878;28;20905;-79
2024/02/25 08:47:51;;;;;;;16.00;15.30;;;;;;;;;;4990129;28;20887;-79
2024/02/25 08:50:18;;;;;;;15.70;15.00;;;;;;;;;;4995023;28;20461;-79
2024/02/25 08:52:45;;;;;;;16.37;15.63;;;;;;;;;;4992122;28;20507;-78
2024/02/25 08:55:12;;;;;;;15.50;14.80;;;;;;;;;;4975098;28;20421;-78
2024/02/25 08:57:40;;;;;;;16.57;15.87;;;;;;;;;;4974936;28;20461;-77
2024/02/25 09:00:08;;;;;;;16.70;15.90;;;;;;;;;;4974928;28;20454;-78
2024/02/25 09:02:35;;;;;;;16.17;15.47;;;;;;;;;;4973988;28;20449;-77
2024/02/25 09:05:02;;;;;;;15.98;15.27;;;;;;;;;;4974246;28;20438;-79
2024/02/25 09:07:31;;;;;;;15.75;15.15;;;;;;;;;;4991046;28;20734;-79
2024/02/25 09:09:58;;;;;;;16.70;15.90;;;;;;;;;;4995185;28;20218;-87
2024/02/25 09:12:25;;;;;;;15.70;15.00;;;;;;;;;;4997736;28;20524;-80
2024/02/25 09:14:53;;;;;;;16.53;15.83;;;;;;;;;;4997034;28;20508;-81
2024/02/25 09:17:20;;;;;;;16.37;15.60;;;;;;;;;;4998259;28;20977;-82
2024/02/25 09:19:47;;;;;;;15.50;14.90;;;;;;;;;;4999499;28;20447;-82
2024/02/25 09:22:14;;;;;;;15.97;15.30;;;;;;;;;;4996863;28;20461;-82
2024/02/25 09:24:41;;;;;;;15.70;15.10;;;;;;;;;;4996889;28;21039;-88
2024/02/25 09:27:08;;;;;;;15.97;15.37;;;;;;;;;;4997106;28;20496;-91
2024/02/25 09:29:35;;;;;;;15.90;15.20;;;;;;;;;;4997139;28;20478;-84
2024/02/25 09:32:03;;;;;;;15.50;14.90;;;;;;;;;;4998324;28;20461;-82
2024/02/25 09:34:30;;;;;;;15.60;15.00;;;;;;;;;;4993128;28;20465;-84
2024/02/25 09:36:57;;;;;;;15.00;14.40;;;;;;;;;;4992113;28;20473;-89
2024/02/25 09:39:24;;;;;;;15.47;14.83;;;;;;;;;;4998004;28;20836;-82
2024/02/25 09:41:52;;;;;;;16.07;15.37;;;;;;;;;;4996194;28;20453;-78
2024/02/25 09:44:22;;;;;;;16.00;15.30;;;;;;;;;;4980889;28;20485;-77
2024/02/25 09:46:50;;;;;;;15.77;15.07;;;;;;;;;;4992443;28;20434;-79
2024/02/25 09:49:19;;;;;;;15.50;14.80;;;;;;;;;;4992387;28;20456;-78
2024/02/25 09:51:48;;;;;;;15.73;15.03;;;;;;;;;;4993165;28;20519;-80
2024/02/25 09:54:15;;;;;;;16.23;15.43;;;;;;;;;;4991681;28;21265;-77
2024/02/25 09:56:43;;;;;;;15.43;14.73;;;;;;;;;;4991583;28;20507;-77
2024/02/25 09:59:10;;;;;;;15.20;14.50;;;;;;;;;;4993077;28;20453;-79
2024/02/25 10:01:37;;;;;;;16.10;15.30;;;;;;;;;;4995957;28;20531;-78
2024/02/25 10:04:05;;;;;;;16.50;15.77;;;;;;;;;;5002895;28;20484;-77
2024/02/25 10:06:38;;;;;;;17.00;16.20;;;;;;;;;;4992369;28;20461;-78
2024/02/25 10:09:07;;;;;;;16.93;16.13;;;;;;;;;;4985870;28;20516;-78
2024/02/25 10:11:35;;;;;;;16.60;15.80;;;;;;;;;;4978750;28;20448;-79
2024/02/25 10:14:03;;;;;;;16.27;15.57;;;;;;;;;;4972741;28;20505;-79
2024/02/25 10:16:30;;;;;;;15.87;15.17;;;;;;;;;;4972682;28;20942;-78
2024/02/25 10:18:57;;;;;;;15.83;15.10;;;;;;;;;;4972861;28;20489;-78
2024/02/25 10:21:24;;;;;;;15.83;15.13;;;;;;;;;;4972076;28;20450;-79
2024/02/25 10:23:55;;;;;;;16.20;15.50;;;;;;;;;;4972448;28;20525;-78
2024/02/25 10:26:24;;;;;;;15.53;14.83;;;;;;;;;;4972485;28;20462;-78
2024/02/25 10:29:02;;;;;;;16.30;15.40;;;;;;;;;;4972174;28;20474;-80
2024/02/25 10:31:29;;;;;;;16.47;15.67;;;;;;;;;;4988777;28;20461;-78
2024/02/25 10:33:57;;;;;;;16.97;16.00;;;;;;;;;;4991553;28;21079;-78
2024/02/25 10:36:26;;;;;;;16.70;16.00;;;;;;;;;;4984072;28;20497;-78
2024/02/25 10:38:55;;;;;;;16.17;15.37;;;;;;;;;;4972421;28;20493;-78
2024/02/25 10:41:23;;;;;;;17.50;16.60;;;;;;;;;;4972134;28;20450;-79
2024/02/25 10:43:52;;;;;;;17.10;16.30;;;;;;;;;;4990896;28;20899;-78
2024/02/25 10:46:23;;;;;;;16.70;15.90;;;;;;;;;;4993163;28;20453;-79
2024/02/25 10:48:50;;;;;;;16.27;15.57;;;;;;;;;;4995749;28;20441;-78
2024/02/25 10:51:19;;;;;;;16.90;16.10;;;;;;;;;;4990521;28;20470;-77
2024/02/25 10:53:46;;;;;;;15.97;15.17;;;;;;;;;;4975182;28;20477;-78
2024/02/25 10:56:16;;;;;;;15.73;15.03;;;;;;;;;;4977590;28;20450;-81
2024/02/25 10:58:45;;;;;;;15.50;14.80;;;;;;;;;;4990882;28;20582;-77
2024/02/25 11:01:13;;;;;;;15.77;15.17;;;;;;;;;;4985247;28;20444;-78
2024/02/25 11:03:40;;;;;;;15.73;15.13;;;;;;;;;;4988724;28;21048;-78
2024/02/25 11:06:08;;;;;;;16.00;15.30;;;;;;;;;;4977477;28;20500;-78
2024/02/25 11:08:36;;;;;;;15.07;14.37;;;;;;;;;;4985956;28;20465;-80
2024/02/25 11:11:09;;;;;;;15.40;14.70;;;;;;;;;;4996101;28;20490;-78
2024/02/25 11:13:36;;;;;;;15.17;14.53;;;;;;;;;;4996277;28;20537;-78
2024/02/25 11:16:05;;;;;;;16.13;15.43;;;;;;;;;;4996154;28;20496;-78
2024/02/25 11:18:32;;;;;;;15.97;15.27;;;;;;;;;;5004442;28;20504;-82
2024/02/25 11:21:05;;;;;;;15.60;14.90;;;;;;;;;;5017048;28;20423;-78
2024/02/25 11:23:43;;;;;;;16.47;15.77;;;;;;;;;;5016252;28;20533;-79
2024/02/25 11:26:28;;;;;;;16.70;16.00;;;;;;;;;;4993275;28;20549;-79
2024/02/25 11:29:10;;;;;;;16.57;15.87;;;;;;;;;;4979603;28;20559;-80
2024/02/25 11:31:49;;;;;;;16.00;15.30;;;;;;;;;;4984223;28;20438;-79
2024/02/25 11:34:18;;;;;;;16.07;15.37;;;;;;;;;;4986292;28;20521;-79
2024/02/25 11:36:45;;;;;;;15.93;15.20;;;;;;;;;;4983975;28;20477;-78
2024/02/25 11:39:13;;;;;;;15.97;15.07;;;;;;;;;;4978852;28;20464;-79
2024/02/25 11:41:41;;;;;;;15.20;14.50;;;;;;;;;;4977696;28;20440;-78
2024/02/25 11:44:08;;;;;;;15.57;14.77;;;;;;;;;;4978707;28;20619;-78
2024/02/25 11:46:35;;;;;;;16.37;15.63;;;;;;;;;;4978879;28;20425;-78
2024/02/25 11:49:04;;;;;;;17.23;16.13;;;;;;;;;;4978851;28;20882;-78
2024/02/25 11:51:31;;;;;;;16.10;15.40;;;;;;;;;;4977756;28;20461;-79
2024/02/25 11:53:58;;;;;;;16.63;15.93;;;;;;;;;;4978714;28;20530;-80
2024/02/25 11:56:25;;;;;;;16.40;15.60;;;;;;;;;;4983231;28;20777;-78
2024/02/25 11:58:52;;;;;;;15.30;14.60;;;;;;;;;;4996371;28;20475;-79
2024/02/25 12:01:19;;;;;;;15.40;14.70;;;;;;;;;;4996129;28;20984;-79
2024/02/25 12:03:46;;;;;;;15.93;15.13;;;;;;;;;;4979694;28;20474;-78
2024/02/25 12:06:15;;;;;;;15.47;14.77;;;;;;;;;;4977216;28;20433;-79
2024/02/25 12:08:46;;;;;;;15.90;15.20;;;;;;;;;;4980374;28;21180;-78
2024/02/25 12:11:14;;;;;;;16.50;15.80;;;;;;;;;;4993234;28;20459;-77
2024/02/25 12:13:42;;;;;;;16.80;16.00;;;;;;;;;;4993664;28;20535;-78
2024/02/25 12:16:09;;;;;;;16.63;15.83;;;;;;;;;;4993471;28;20457;-76
2024/02/25 12:18:37;;;;;;;15.70;15.00;;;;;;;;;;4993277;28;20468;-78
2024/02/25 12:21:04;;;;;;;16.30;15.60;;;;;;;;;;4992774;28;20530;-77
2024/02/25 12:23:33;;;;;;;15.97;15.27;;;;;;;;;;4994089;28;20880;-78
2024/02/25 12:26:03;;;;;;;16.50;15.80;;;;;;;;;;4994185;28;20883;-76
2024/02/25 12:28:36;;;;;;;16.07;15.37;;;;;;;;;;4994120;28;20428;-77
2024/02/25 12:31:05;;;;;;;14.93;14.30;;;;;;;;;;4993386;28;20992;-77
2024/02/25 12:33:32;;;;;;;16.67;15.93;;;;;;;;;;4993525;28;20548;-77
2024/02/25 12:36:00;;;;;;;16.00;15.30;;;;;;;;;;4994055;28;20438;-77
2024/02/25 12:38:27;;;;;;;16.57;15.77;;;;;;;;;;4992988;28;21043;-77
2024/02/25 12:40:57;;;;;;;16.80;16.00;;;;;;;;;;4979242;28;20842;-78
2024/02/25 12:43:25;;;;;;;15.83;15.23;;;;;;;;;;4991657;28;20485;-76
2024/02/25 12:45:52;;;;;;;16.13;15.43;;;;;;;;;;4993049;28;20431;-77
2024/02/25 12:48:19;;;;;;;15.50;14.80;;;;;;;;;;4993234;28;20442;-77
2024/02/25 12:50:46;;;;;;;16.87;16.07;;;;;;;;;;4992144;28;20515;-78
2024/02/25 12:53:13;;;;;;;15.80;15.10;;;;;;;;;;4992636;28;20529;-77
2024/02/25 12:55:41;;;;;;;16.30;15.60;;;;;;;;;;4992756;28;20449;-78
2024/02/25 12:58:09;;;;;;;15.73;15.03;;;;;;;;;;4992682;28;21004;-77
2024/02/25 13:00:36;;;;;;;15.50;14.80;;;;;;;;;;4992333;28;20461;-76
2024/02/25 13:03:03;;;;;;;15.93;15.23;;;;;;;;;;4992332;28;20472;-77
2024/02/25 13:05:32;;;;;;;15.70;15.00;;;;;;;;;;4992305;28;20457;-76
2024/02/25 13:08:00;;;;;;;16.20;15.50;;;;;;;;;;4991471;28;20420;-77
2024/02/25 13:10:27;;;;;;;15.70;15.10;;;;;;;;;;4989934;28;20559;-77
2024/02/25 13:12:54;;;;;;;15.50;14.80;;;;;;;;;;4991587;28;20480;-77
2024/02/25 13:15:22;;;;;;;16.20;15.50;;;;;;;;;;4989306;28;20805;-76
2024/02/25 13:17:49;;;;;;;16.33;15.63;;;;;;;;;;4992061;28;20454;-76
2024/02/25 13:20:17;;;;;;;16.40;15.70;;;;;;;;;;4992323;28;20969;-78
2024/02/25 13:22:44;;;;;;;16.03;15.23;;;;;;;;;;4972186;28;20497;-77
2024/02/25 13:25:11;;;;;;;16.07;15.37;;;;;;;;;;4973017;28;20454;-78
2024/02/25 13:27:38;;;;;;;16.17;15.47;;;;;;;;;;4972898;28;20926;-77
2024/02/25 13:30:04;;;;;;;16.23;15.53;;;;;;;;;;4972266;28;20473;-78
2024/02/25 13:32:32;;;;;;;16.77;15.97;;;;;;;;;;4972056;28;20472;-77
2024/02/25 13:34:59;;;;;;;16.00;15.30;;;;;;;;;;4972861;28;20474;-78
2024/02/25 13:37:26;;;;;;;15.80;15.20;;;;;;;;;;4972497;28;20489;-76
2024/02/25 13:39:54;;;;;;;16.77;15.97;;;;;;;;;;4972360;28;20482;-77
2024/02/25 13:42:21;;;;;;;15.47;14.77;;;;;;;;;;4971860;28;20428;-78
2024/02/25 13:44:49;;;;;;;16.90;16.10;;;;;;;;;;4972755;28;20837;-78
2024/02/25 13:47:16;;;;;;;16.17;15.53;;;;;;;;;;4972178;28;20765;-77
2024/02/25 13:49:44;;;;;;;16.30;15.60;;;;;;;;;;4972380;28;20450;-77
2024/02/25 13:52:11;;;;;;;15.97;15.27;;;;;;;;;;4971697;28;20452;-77
2024/02/25 13:54:38;;;;;;;15.67;14.97;;;;;;;;;;4972301;28;20856;-79
2024/02/25 13:57:05;;;;;;;16.63;15.83;;;;;;;;;;4972368;28;20442;-77
2024/02/25 13:59:32;;;;;;;16.00;15.27;;;;;;;;;;4972146;28;20464;-77
2024/02/25 14:02:00;;;;;;;15.70;15.10;;;;;;;;;;4971695;28;20557;-77
2024/02/25 14:04:27;;;;;;;16.00;15.30;;;;;;;;;;4972021;28;20489;-77
2024/02/25 14:06:56;;;;;;;16.07;15.37;;;;;;;;;;4971963;28;20561;-77
2024/02/25 14:09:23;;;;;;;15.80;15.10;;;;;;;;;;4973013;28;20544;-79
2024/02/25 14:11:50;;;;;;;16.23;15.43;;;;;;;;;;4991322;28;20445;-76
2024/02/25 14:14:17;;;;;;;16.47;15.50;;;;;;;;;;4990658;28;20485;-77
2024/02/25 14:16:44;;;;;;;16.40;15.70;;;;;;;;;;4991579;28;20512;-77
2024/02/25 14:19:11;;;;;;;16.37;15.67;;;;;;;;;;4991378;28;20890;-78